createdAt,value
2018-06-11T00:01:38.140Z,77.00
2018-06-11T00:04:12.433Z,77.10
2018-06-11T00:06:46.795Z,76.80
2018-06-11T00:11:55.748Z,76.70
2018-06-11T00:14:30.055Z,77.70
2018-06-11T00:17:04.366Z,77.60
2018-06-11T00:19:38.646Z,76.80
2018-06-11T00:22:12.899Z,77.10
2018-06-11T00:24:47.250Z,78.40
2018-06-11T00:27:21.575Z,77.20
2018-06-11T00:29:55.858Z,77.00
2018-06-11T00:32:30.122Z,77.20
2018-06-11T00:35:04.445Z,78.20
2018-06-11T00:37:38.774Z,78.30
2018-06-11T00:40:13.142Z,77.50
2018-06-11T00:42:48.964Z,77.00
2018-06-11T00:45:23.308Z,77.10
2018-06-11T00:47:57.619Z,77.10
2018-06-11T00:50:31.910Z,76.70
2018-06-11T00:53:06.189Z,76.50
2018-06-11T00:55:51.859Z,77.50
2018-06-11T00:58:26.160Z,77.20
2018-06-11T01:01:00.423Z,76.00
2018-06-11T01:03:34.641Z,77.30
2018-06-11T01:06:08.919Z,77.00
2018-06-11T01:08:43.235Z,76.30
2018-06-11T01:11:17.652Z,75.40
2018-06-11T01:13:52.079Z,75.70
2018-06-11T01:16:26.465Z,75.30
2018-06-11T01:19:00.733Z,76.70
2018-06-11T01:21:35.042Z,76.50
2018-06-11T01:24:09.315Z,76.40
2018-06-11T01:26:43.486Z,75.80
2018-06-11T01:29:17.952Z,76.00
2018-06-11T01:31:52.103Z,75.90
2018-06-11T01:34:26.435Z,76.00
2018-06-11T01:37:00.706Z,76.00
2018-06-11T01:39:34.907Z,76.10
2018-06-11T01:42:09.313Z,75.80
2018-06-11T01:44:43.610Z,75.80
2018-06-11T01:47:17.985Z,75.90
2018-06-11T01:49:52.134Z,76.60
2018-06-11T01:52:26.532Z,75.90
2018-06-11T01:55:00.774Z,75.80
2018-06-11T01:57:34.927Z,76.00
2018-06-11T02:00:09.042Z,76.80
2018-06-11T02:02:43.391Z,76.30
2018-06-11T02:05:17.639Z,76.20
2018-06-11T02:07:52.048Z,75.80
2018-06-11T02:10:26.223Z,76.40
2018-06-11T02:13:00.555Z,76.30
2018-06-11T02:15:34.746Z,77.30
2018-06-11T02:18:09.077Z,77.10
2018-06-11T02:20:43.322Z,76.60
2018-06-11T02:23:17.437Z,75.90
2018-06-11T02:25:51.814Z,76.60
2018-06-11T02:28:26.150Z,76.80
2018-06-11T02:31:00.429Z,75.60
2018-06-11T02:33:34.698Z,74.10
2018-06-11T02:36:08.978Z,73.90
2018-06-11T02:38:43.250Z,74.40
2018-06-11T02:41:17.431Z,74.30
2018-06-11T02:43:51.670Z,73.60
2018-06-11T02:46:26.031Z,73.30
2018-06-11T02:51:34.605Z,73.80
2018-06-11T02:54:08.886Z,73.60
2018-06-11T02:56:43.285Z,73.40
2018-06-11T02:59:17.606Z,73.30
2018-06-11T03:01:51.892Z,72.90
2018-06-11T03:04:26.337Z,73.50
2018-06-11T03:07:00.679Z,73.00
2018-06-11T03:09:34.883Z,73.00
2018-06-11T03:12:09.080Z,73.40
2018-06-11T03:14:43.210Z,72.40
2018-06-11T03:17:17.534Z,72.00
2018-06-11T03:19:51.722Z,72.50
2018-06-11T03:22:25.934Z,73.00
2018-06-11T03:25:00.380Z,73.20
2018-06-11T03:27:34.666Z,72.90
2018-06-11T03:30:09.063Z,73.10
2018-06-11T03:32:43.339Z,73.30
2018-06-11T03:35:17.518Z,73.30
2018-06-11T03:37:51.827Z,73.80
2018-06-11T03:40:26.074Z,73.20
2018-06-11T03:43:00.630Z,73.10
2018-06-11T03:45:34.867Z,73.00
2018-06-11T03:48:09.114Z,72.90
2018-06-11T03:50:43.411Z,72.80
2018-06-11T03:53:17.592Z,74.00
2018-06-11T03:55:51.746Z,73.80
2018-06-11T03:58:26.082Z,73.00
2018-06-11T04:01:00.236Z,72.00
2018-06-11T04:03:34.486Z,71.70
2018-06-11T04:06:08.823Z,71.90
2018-06-11T04:08:43.026Z,72.10
2018-06-11T04:11:17.464Z,71.90
2018-06-11T04:13:51.877Z,72.40
2018-06-11T04:16:26.202Z,71.70
2018-06-11T04:19:00.693Z,71.70
2018-06-11T04:21:34.967Z,71.20
2018-06-11T04:24:09.114Z,71.10
2018-06-11T04:26:43.522Z,70.80
2018-06-11T04:29:17.873Z,69.70
2018-06-11T04:31:52.150Z,70.40
2018-06-11T04:34:26.576Z,69.60
2018-06-11T04:37:00.870Z,69.30
2018-06-11T04:39:35.359Z,69.00
2018-06-11T04:42:09.743Z,68.60
2018-06-11T04:44:44.048Z,69.20
2018-06-11T04:47:18.348Z,69.80
2018-06-11T04:49:52.646Z,69.80
2018-06-11T04:52:26.813Z,69.90
2018-06-11T04:55:01.028Z,69.20
2018-06-11T04:57:35.367Z,70.30
2018-06-11T05:00:09.569Z,71.50
2018-06-11T05:02:43.830Z,70.70
2018-06-11T05:05:18.074Z,71.20
2018-06-11T05:07:52.419Z,71.30
2018-06-11T05:13:00.770Z,71.00
2018-06-11T05:15:34.964Z,70.80
2018-06-11T05:18:09.156Z,70.40
2018-06-11T05:20:43.326Z,70.70
2018-06-11T05:23:17.683Z,70.30
2018-06-11T05:25:52.088Z,70.30
2018-06-11T05:28:26.343Z,70.20
2018-06-11T05:31:00.643Z,70.20
2018-06-11T05:33:34.840Z,69.60
2018-06-11T05:36:09.166Z,70.30
2018-06-11T05:38:43.389Z,70.40
2018-06-11T05:41:17.680Z,69.90
2018-06-11T05:43:52.048Z,70.30
2018-06-11T05:46:26.382Z,70.40
2018-06-11T05:49:00.724Z,70.30
2018-06-11T05:51:34.995Z,71.10
2018-06-11T05:54:09.377Z,70.20
2018-06-11T05:56:43.641Z,70.40
2018-06-11T05:59:18.078Z,69.30
2018-06-11T06:01:52.430Z,70.30
2018-06-11T06:04:26.787Z,68.20
2018-06-11T06:07:01.038Z,69.10
2018-06-11T06:09:35.343Z,69.20
2018-06-11T06:12:09.622Z,69.80
2018-06-11T06:14:43.929Z,68.90
2018-06-11T06:17:18.102Z,69.60
2018-06-11T06:19:52.271Z,70.50
2018-06-11T06:22:26.558Z,70.50
2018-06-11T06:25:00.745Z,69.00
2018-06-11T06:27:34.942Z,69.00
2018-06-11T06:30:09.238Z,68.70
2018-06-11T06:32:43.573Z,69.60
2018-06-11T06:35:17.905Z,69.50
2018-06-11T06:37:52.211Z,69.10
2018-06-11T06:43:00.560Z,70.80
2018-06-11T06:45:34.878Z,69.10
2018-06-11T06:48:09.191Z,69.90
2018-06-11T06:50:43.599Z,69.00
2018-06-11T06:53:18.042Z,69.90
2018-06-11T06:55:52.355Z,68.60
2018-06-11T06:58:26.535Z,69.20
2018-06-11T07:01:00.755Z,69.10
2018-06-11T07:03:34.918Z,68.70
2018-06-11T07:06:09.162Z,68.90
2018-06-11T07:08:43.620Z,68.60
2018-06-11T07:11:17.862Z,68.70
2018-06-11T07:13:52.256Z,67.50
2018-06-11T07:16:26.623Z,67.70
2018-06-11T07:19:01.034Z,67.00
2018-06-11T07:21:35.297Z,66.00
2018-06-11T07:24:09.670Z,65.20
2018-06-11T07:26:43.836Z,64.60
2018-06-11T07:29:18.119Z,64.40
2018-06-11T07:31:52.326Z,63.80
2018-06-11T07:34:26.610Z,64.10
2018-06-11T07:37:00.935Z,64.80
2018-06-11T07:39:35.169Z,62.60
2018-06-11T07:42:09.579Z,63.40
2018-06-11T07:44:43.886Z,63.10
2018-06-11T07:47:18.212Z,64.20
2018-06-11T07:49:52.580Z,63.90
2018-06-11T07:52:26.776Z,64.60
2018-06-11T07:55:01.031Z,65.00
2018-06-11T07:57:35.416Z,64.00
2018-06-11T08:00:09.597Z,64.50
2018-06-11T08:02:43.826Z,63.10
2018-06-11T08:05:18.102Z,62.10
2018-06-11T08:07:52.411Z,61.30
2018-06-11T08:10:26.830Z,61.40
2018-06-11T08:13:01.340Z,61.10
2018-06-11T08:15:35.610Z,59.60
2018-06-11T08:18:09.850Z,60.90
2018-06-11T08:20:44.082Z,61.30
2018-06-11T08:23:18.424Z,59.40
2018-06-11T08:25:52.686Z,60.60
2018-06-11T08:28:27.097Z,61.00
2018-06-11T08:31:01.398Z,59.40
2018-06-11T08:33:35.769Z,57.80
2018-06-11T08:36:10.075Z,57.90
2018-06-11T08:38:44.370Z,59.10
2018-06-11T08:41:18.657Z,58.90
2018-06-11T08:43:52.911Z,59.80
2018-06-11T08:46:27.117Z,58.80
2018-06-11T08:49:01.724Z,59.10
2018-06-11T08:51:35.897Z,60.30
2018-06-11T08:54:10.247Z,59.60
2018-06-11T08:56:44.514Z,60.10
2018-06-11T08:59:18.631Z,58.70
2018-06-11T09:01:52.904Z,58.90
2018-06-11T09:04:27.198Z,58.50
2018-06-11T09:07:01.664Z,59.10
2018-06-11T09:09:35.761Z,58.70
2018-06-11T09:12:09.906Z,58.70
2018-06-11T09:14:44.082Z,58.20
2018-06-11T09:17:18.324Z,58.10
2018-06-11T09:19:52.762Z,57.90
2018-06-11T09:22:27.169Z,58.10
2018-06-11T09:25:01.565Z,58.00
2018-06-11T09:27:35.810Z,58.80
2018-06-11T09:30:10.012Z,57.70
2018-06-11T09:32:44.366Z,56.40
2018-06-11T09:35:18.585Z,57.30
2018-06-11T09:37:52.867Z,55.60
2018-06-11T09:40:27.266Z,57.00
2018-06-11T09:43:01.449Z,57.30
2018-06-11T09:45:35.803Z,55.10
2018-06-11T09:48:10.033Z,56.20
2018-06-11T09:50:44.234Z,56.50
2018-06-11T09:53:18.545Z,56.30
2018-06-11T09:55:52.728Z,55.20
2018-06-11T09:58:27.060Z,55.00
2018-06-11T10:01:01.482Z,56.50
2018-06-11T10:03:35.927Z,56.90
2018-06-11T10:06:10.156Z,56.20
2018-06-11T10:08:44.462Z,54.80
2018-06-11T10:11:18.770Z,55.10
2018-06-11T10:13:53.139Z,54.80
2018-06-11T10:16:27.466Z,54.40
2018-06-11T10:19:02.194Z,55.40
2018-06-11T10:21:36.419Z,53.90
2018-06-11T10:24:10.765Z,54.70
2018-06-11T10:26:45.111Z,55.40
2018-06-11T10:29:19.358Z,56.20
2018-06-11T10:31:53.638Z,55.00
2018-06-11T10:34:27.962Z,54.50
2018-06-11T10:37:02.107Z,53.90
2018-06-11T10:39:36.246Z,55.00
2018-06-11T10:42:10.486Z,53.10
2018-06-11T10:44:44.634Z,51.80
2018-06-11T10:47:18.811Z,53.20
2018-06-11T10:49:53.127Z,51.60
2018-06-11T10:52:27.455Z,53.30
2018-06-11T10:55:01.710Z,51.70
2018-06-11T10:57:36.019Z,53.30
2018-06-11T11:00:10.208Z,52.80
2018-06-11T11:02:44.430Z,51.20
2018-06-11T11:05:18.630Z,52.10
2018-06-11T11:10:27.146Z,52.50
2018-06-11T11:13:01.526Z,49.20
2018-06-11T11:15:35.836Z,50.70
2018-06-11T11:18:10.110Z,51.90
2018-06-11T11:20:44.479Z,51.60
2018-06-11T11:23:18.762Z,51.00
2018-06-11T11:25:52.963Z,49.90
2018-06-11T11:28:27.119Z,50.10
2018-06-11T11:31:01.376Z,49.80
2018-06-11T11:33:35.707Z,50.30
2018-06-11T11:36:09.907Z,51.20
2018-06-11T11:38:44.217Z,50.90
2018-06-11T11:41:18.511Z,49.40
2018-06-11T11:43:52.813Z,50.30
2018-06-11T11:46:27.072Z,48.40
2018-06-11T11:49:01.402Z,48.20
2018-06-11T11:51:35.702Z,49.20
2018-06-11T11:54:09.890Z,48.20
2018-06-11T11:56:44.134Z,48.50
2018-06-11T11:59:18.414Z,49.40
2018-06-11T12:01:52.675Z,48.00
2018-06-11T12:04:27.098Z,47.40
2018-06-11T12:07:01.428Z,49.20
2018-06-11T12:09:35.803Z,47.60
2018-06-11T12:12:10.162Z,47.70
2018-06-11T12:14:44.438Z,47.80
2018-06-11T12:17:18.710Z,46.20
2018-06-11T12:19:53.148Z,49.10
2018-06-11T12:22:27.483Z,47.40
2018-06-11T12:25:01.888Z,48.70
2018-06-11T12:27:36.178Z,47.20
2018-06-11T12:30:10.475Z,47.30
2018-06-11T12:32:44.790Z,46.30
2018-06-11T12:35:18.987Z,47.20
2018-06-11T12:37:53.274Z,46.50
2018-06-11T12:40:27.474Z,45.50
2018-06-11T12:43:01.738Z,46.80
2018-06-11T12:45:36.034Z,45.60
2018-06-11T12:48:10.467Z,47.30
2018-06-11T12:53:18.870Z,46.30
2018-06-11T12:55:53.066Z,43.70
2018-06-11T12:58:27.358Z,46.50
2018-06-11T13:01:01.616Z,47.60
2018-06-11T13:03:35.854Z,46.00
2018-06-11T13:06:10.130Z,47.20
2018-06-11T13:08:44.394Z,45.70
2018-06-11T13:11:18.826Z,45.80
2018-06-11T13:13:53.094Z,46.10
2018-06-11T13:16:27.387Z,45.70
2018-06-11T13:19:01.658Z,45.00
2018-06-11T13:21:35.933Z,44.20
2018-06-11T13:24:10.119Z,46.30
2018-06-11T13:26:44.466Z,47.80
2018-06-11T13:29:18.730Z,45.90
2018-06-11T13:31:53.003Z,44.90
2018-06-11T13:34:27.429Z,45.20
2018-06-11T13:37:01.750Z,45.60
2018-06-11T13:39:35.997Z,45.40
2018-06-11T13:42:10.249Z,44.50
2018-06-11T13:44:44.733Z,45.60
2018-06-11T13:47:19.000Z,46.70
2018-06-11T13:49:53.282Z,43.90
2018-06-11T13:52:27.638Z,43.90
2018-06-11T13:55:01.782Z,44.40
2018-06-11T13:57:36.076Z,43.30
2018-06-11T14:00:10.314Z,43.60
2018-06-11T14:02:44.667Z,44.10
2018-06-11T14:05:18.969Z,43.50
2018-06-11T14:07:53.314Z,44.10
2018-06-11T14:10:27.534Z,43.50
2018-06-11T14:13:02.282Z,43.10
2018-06-11T14:15:36.502Z,44.00
2018-06-11T14:20:44.998Z,42.50
2018-06-11T14:23:19.297Z,42.50
2018-06-11T14:25:53.607Z,42.10
2018-06-11T14:28:27.901Z,43.00
2018-06-11T14:31:02.323Z,41.70
2018-06-11T14:33:36.632Z,42.70
2018-06-11T14:36:10.807Z,41.70
2018-06-11T14:38:45.131Z,41.80
2018-06-11T14:41:19.444Z,42.80
2018-06-11T14:43:53.746Z,42.80
2018-06-11T14:46:27.862Z,41.80
2018-06-11T14:49:02.243Z,41.50
2018-06-11T14:51:36.456Z,42.10
2018-06-11T14:54:10.790Z,42.40
2018-06-11T14:56:45.087Z,43.10
2018-06-11T14:59:19.441Z,41.90
2018-06-11T15:01:53.630Z,41.80
2018-06-11T15:04:27.884Z,41.40
2018-06-11T15:07:02.175Z,39.40
2018-06-11T15:09:36.486Z,39.60
2018-06-11T15:12:10.823Z,42.30
2018-06-11T15:14:45.080Z,41.80
2018-06-11T15:17:19.342Z,41.50
2018-06-11T15:19:53.521Z,41.60
2018-06-11T15:22:27.826Z,42.90
2018-06-11T15:25:02.135Z,42.40
2018-06-11T15:27:36.314Z,41.40
2018-06-11T15:30:10.610Z,41.40
2018-06-11T15:32:44.934Z,42.20
2018-06-11T15:35:19.366Z,42.30
2018-06-11T15:37:53.670Z,41.80
2018-06-11T15:40:27.904Z,40.90
2018-06-11T15:43:02.424Z,41.40
2018-06-11T15:45:36.803Z,41.70
2018-06-11T15:48:11.130Z,41.40
2018-06-11T15:50:45.400Z,42.10
2018-06-11T15:53:19.696Z,42.80
2018-06-11T15:55:53.969Z,43.10
2018-06-11T15:58:28.378Z,42.30
2018-06-11T16:01:02.775Z,42.60
2018-06-11T16:03:36.967Z,43.80
2018-06-11T16:06:11.165Z,42.80
2018-06-11T16:08:45.463Z,42.70
2018-06-11T16:11:19.832Z,42.90
2018-06-11T16:13:54.149Z,44.30
2018-06-11T16:16:28.451Z,44.40
2018-06-11T16:21:36.826Z,44.30
2018-06-11T16:24:11.035Z,44.00
2018-06-11T16:26:45.473Z,43.40
2018-06-11T16:29:19.831Z,43.20
2018-06-11T16:31:54.083Z,42.90
2018-06-11T16:34:28.370Z,44.10
2018-06-11T16:37:02.831Z,44.80
2018-06-11T16:39:37.240Z,44.50
2018-06-11T16:42:11.538Z,45.10
2018-06-11T16:44:45.804Z,45.40
2018-06-11T16:47:20.054Z,45.10
2018-06-11T16:49:54.403Z,45.30
2018-06-11T16:52:28.693Z,45.10
2018-06-11T16:55:02.935Z,46.50
2018-06-11T16:57:37.382Z,46.10
2018-06-11T17:00:11.702Z,46.10
2018-06-11T17:02:45.902Z,46.90
2018-06-11T17:05:20.240Z,46.90
2018-06-11T17:07:54.534Z,47.50
2018-06-11T17:10:28.915Z,47.60
2018-06-11T17:13:03.420Z,47.30
2018-06-11T17:15:37.698Z,47.40
2018-06-11T17:18:11.866Z,47.20
2018-06-11T17:20:46.234Z,47.30
2018-06-11T17:23:20.457Z,47.60
2018-06-11T17:25:55.735Z,46.70
2018-06-11T17:28:29.958Z,46.60
2018-06-11T17:31:05.059Z,46.00
2018-06-11T17:33:39.379Z,46.40
2018-06-11T17:36:13.735Z,46.40
2018-06-11T17:38:48.111Z,46.60
2018-06-11T17:41:22.318Z,46.90
2018-06-11T17:43:56.665Z,47.90
2018-06-11T17:46:30.992Z,48.10
2018-06-11T17:49:05.404Z,48.90
2018-06-11T17:51:39.602Z,48.60
2018-06-11T17:54:13.923Z,47.90
2018-06-11T17:56:48.161Z,47.80
2018-06-11T17:59:22.390Z,48.50
2018-06-11T18:01:56.742Z,47.80
2018-06-11T18:04:30.971Z,49.00
2018-06-11T18:07:05.515Z,48.50
2018-06-11T18:09:39.697Z,49.10
2018-06-11T18:12:14.112Z,48.50
2018-06-11T18:14:48.429Z,48.40
2018-06-11T18:17:22.829Z,48.90
2018-06-11T18:19:57.262Z,49.10
2018-06-11T18:22:31.584Z,49.80
2018-06-11T18:25:06.017Z,50.70
2018-06-11T18:27:40.279Z,51.20
2018-06-11T18:30:14.623Z,51.00
2018-06-11T18:35:23.003Z,51.90
2018-06-11T18:37:57.199Z,52.20
2018-06-11T18:40:31.507Z,52.30
2018-06-11T18:43:05.958Z,52.20
2018-06-11T18:45:40.212Z,52.60
2018-06-11T18:48:14.509Z,53.00
2018-06-11T18:50:48.774Z,53.40
2018-06-11T18:53:22.892Z,54.00
2018-06-11T18:55:57.282Z,54.00
2018-06-11T18:58:31.503Z,54.30
2018-06-11T19:01:05.946Z,54.30
2018-06-11T19:03:40.265Z,54.70
2018-06-11T19:06:14.622Z,55.20
2018-06-11T19:08:48.970Z,55.40
2018-06-11T19:11:23.275Z,55.60
2018-06-11T19:13:57.750Z,55.80
2018-06-11T19:16:32.035Z,55.80
2018-06-11T19:19:06.340Z,55.80
2018-06-11T19:21:40.626Z,56.00
2018-06-11T19:26:48.946Z,56.00
2018-06-11T19:29:23.322Z,56.60
2018-06-11T19:31:57.529Z,56.40
2018-06-11T19:34:31.940Z,56.60
2018-06-11T19:37:06.286Z,56.60
2018-06-11T19:39:40.606Z,56.70
2018-06-11T19:42:14.797Z,57.00
2018-06-11T19:44:49.194Z,57.30
2018-06-11T19:47:23.590Z,57.40
2018-06-11T19:49:58.118Z,57.70
2018-06-11T19:52:32.386Z,57.90
2018-06-11T19:55:06.642Z,57.90
2018-06-11T19:57:40.837Z,57.90
2018-06-11T20:00:15.154Z,58.10
2018-06-11T20:02:49.594Z,58.40
2018-06-11T20:05:23.926Z,59.00
2018-06-11T20:07:58.227Z,59.00
2018-06-11T20:10:32.734Z,59.10
2018-06-11T20:13:07.145Z,59.10
2018-06-11T20:15:41.400Z,59.50
2018-06-11T20:18:15.687Z,59.10
2018-06-11T20:20:49.990Z,59.60
2018-06-11T20:23:24.342Z,59.60
2018-06-11T20:25:58.571Z,59.60
2018-06-11T20:28:32.978Z,60.20
2018-06-11T20:31:07.119Z,60.40
2018-06-11T20:33:41.334Z,60.50
2018-06-11T20:36:15.571Z,60.90
2018-06-11T20:38:49.942Z,60.80
2018-06-11T20:41:24.259Z,61.00
2018-06-11T20:43:58.655Z,61.40
2018-06-11T20:46:32.854Z,61.00
2018-06-11T20:49:07.154Z,61.30
2018-06-11T20:51:41.426Z,61.40
2018-06-11T20:54:15.858Z,61.30
2018-06-11T20:56:50.179Z,61.60
2018-06-11T20:59:24.427Z,61.60
2018-06-11T21:01:58.772Z,62.30
2018-06-11T21:04:33.027Z,62.20
2018-06-11T21:07:07.318Z,62.50
2018-06-11T21:09:41.598Z,62.90
2018-06-11T21:12:15.988Z,63.20
2018-06-11T21:14:50.278Z,63.50
2018-06-11T21:17:24.455Z,63.80
2018-06-11T21:19:58.778Z,63.40
2018-06-11T21:22:33.142Z,64.00
2018-06-11T21:25:07.478Z,64.30
2018-06-11T21:27:41.776Z,64.10
2018-06-11T21:30:16.099Z,64.60
2018-06-11T21:32:50.347Z,64.70
2018-06-11T21:35:24.607Z,64.80
2018-06-11T21:37:58.958Z,65.80
2018-06-11T21:40:33.248Z,66.30
2018-06-11T21:43:07.674Z,66.10
2018-06-11T21:45:41.938Z,66.10
2018-06-11T21:48:16.179Z,66.30
2018-06-11T21:50:50.506Z,66.50
2018-06-11T21:53:24.951Z,66.50
2018-06-11T21:55:59.235Z,67.20
2018-06-11T21:58:33.518Z,67.20
2018-06-11T22:01:07.829Z,67.30
2018-06-11T22:03:42.223Z,67.50
2018-06-11T22:08:50.476Z,68.00
2018-06-11T22:11:24.840Z,68.00
2018-06-11T22:13:59.094Z,68.20
2018-06-11T22:19:07.555Z,68.50
2018-06-11T22:21:41.919Z,69.00
2018-06-11T22:26:50.438Z,69.00
2018-06-11T22:29:24.899Z,69.70
2018-06-11T22:31:59.112Z,70.10
2018-06-11T22:34:33.402Z,70.30
2018-06-11T22:37:07.704Z,70.10
2018-06-11T22:39:42.054Z,70.60
2018-06-11T22:42:17.386Z,70.70
2018-06-11T22:44:51.641Z,70.80
2018-06-11T22:47:26.015Z,71.50
2018-06-11T22:50:00.454Z,71.60
2018-06-11T22:52:34.962Z,71.30
2018-06-11T22:55:09.399Z,71.50
2018-06-11T23:00:27.546Z,71.50
2018-06-11T23:03:02.048Z,71.50
2018-06-11T23:05:36.369Z,72.00
2018-06-11T23:08:10.800Z,71.70
2018-06-11T23:10:45.038Z,72.30
2018-06-11T23:13:19.427Z,71.80
2018-06-11T23:15:53.746Z,72.10
2018-06-11T23:18:28.090Z,72.10
2018-06-11T23:21:02.367Z,72.00
2018-06-11T23:23:36.746Z,72.20
2018-06-11T23:26:10.960Z,71.90
2018-06-11T23:28:45.256Z,72.20
2018-06-11T23:31:19.414Z,72.10
2018-06-11T23:33:53.612Z,72.70
2018-06-11T23:36:27.882Z,73.00
2018-06-11T23:41:36.430Z,72.50
2018-06-11T23:46:44.777Z,72.30
2018-06-11T23:49:19.298Z,72.60
2018-06-11T23:51:53.583Z,72.70
2018-06-11T23:54:27.831Z,72.60
2018-06-11T23:57:02.208Z,72.60
2018-06-11T23:59:36.665Z,72.40
